Terminal Aerodrome Forecast
Issued by NWS

Home | Current Version | Previous Version | Text Only | Print | Product List | Glossary On
Versions: 1 2 3 4 5 6 7 8 9 10 11 12 13 14 15 16 17 18 19 20 21 22 23 24 25 26 27 28 29 30 31 32 33 34 35 36 37 38
000
FTUS45 KBOU 041137
TAFBJC
TAF
KBJC 041137Z 0412/0512 32007KT P6SM FEW120 BKN200
     FM041400 02007KT P6SM FEW120 SCT200
     FM041900 31012G22KT P6SM FEW100
     FM050100 35011KT P6SM FEW100
     FM050400 24007KT P6SM SKC=

USA.gov is the U.S. government's official web portal to all federal, state and local government web resources and services.